createdAt,value
2023-01-05T00:02:02.096Z,6.05
2023-01-05T00:04:30.426Z,6.07
2023-01-05T00:06:59.165Z,6.13
2023-01-05T00:09:28.706Z,6.20
2023-01-05T00:12:15.412Z,6.37
2023-01-05T00:15:02.520Z,6.57
2023-01-05T00:17:49.541Z,6.56
2023-01-05T00:20:40.188Z,6.52
2023-01-05T00:23:10.065Z,6.52
2023-01-05T00:25:41.214Z,6.53
2023-01-05T00:28:10.133Z,6.46
2023-01-05T00:30:47.451Z,6.39
2023-01-05T00:33:18.309Z,6.43
2023-01-05T00:35:46.978Z,6.43
2023-01-05T00:38:15.967Z,6.17
2023-01-05T00:40:44.243Z,6.45
2023-01-05T00:43:12.922Z,6.45
2023-01-05T00:45:41.098Z,6.39
2023-01-05T00:48:09.716Z,6.31
2023-01-05T00:50:37.799Z,6.35
2023-01-05T00:53:06.497Z,6.25
2023-01-05T00:55:34.731Z,6.53
2023-01-05T00:58:03.211Z,6.54
2023-01-05T01:00:31.452Z,6.57
2023-01-05T01:02:59.932Z,6.57
2023-01-05T01:05:28.088Z,6.59
2023-01-05T01:07:59.397Z,6.57
2023-01-05T01:10:27.773Z,6.63
2023-01-05T01:12:56.189Z,6.62
2023-01-05T01:15:26.817Z,6.68
2023-01-05T01:17:55.037Z,6.73
2023-01-05T01:20:23.158Z,6.72
2023-01-05T01:22:51.731Z,6.52
2023-01-05T01:25:21.412Z,6.76
2023-01-05T01:27:49.817Z,6.53
2023-01-05T01:30:18.812Z,6.33
2023-01-05T01:32:46.839Z,6.80
2023-01-05T01:35:14.930Z,6.63
2023-01-05T01:37:44.107Z,6.74
2023-01-05T01:40:13.494Z,6.78
2023-01-05T01:42:41.991Z,6.84
2023-01-05T01:45:22.012Z,6.68
2023-01-05T01:48:01.620Z,6.97
2023-01-05T01:50:39.261Z,7.02
2023-01-05T01:53:17.632Z,7.01
2023-01-05T01:55:46.773Z,7.11
2023-01-05T01:58:19.592Z,7.14
2023-01-05T02:00:48.397Z,7.17
2023-01-05T02:03:17.025Z,7.16
2023-01-05T02:05:45.113Z,7.27
2023-01-05T02:08:16.501Z,7.28
2023-01-05T02:11:13.962Z,7.00
2023-01-05T02:13:51.426Z,7.22
2023-01-05T02:16:36.415Z,7.22
2023-01-05T02:19:45.623Z,7.21
2023-01-05T02:22:57.747Z,7.24
2023-01-05T02:26:28.069Z,7.32
2023-01-05T02:29:46.249Z,7.27
2023-01-05T02:32:28.558Z,7.26
2023-01-05T02:35:10.161Z,7.26
2023-01-05T02:37:51.567Z,7.03
2023-01-05T02:40:34.491Z,7.04
2023-01-05T02:43:04.836Z,7.29
2023-01-05T02:45:33.001Z,7.13
2023-01-05T02:48:02.386Z,7.28
2023-01-05T02:50:47.901Z,7.28
2023-01-05T02:53:22.312Z,7.27
2023-01-05T02:56:01.372Z,7.08
2023-01-05T02:58:39.450Z,7.27
2023-01-05T03:01:21.864Z,7.12
2023-01-05T03:04:20.447Z,7.37
2023-01-05T03:06:58.904Z,7.40
2023-01-05T03:09:36.881Z,7.18
2023-01-05T03:12:44.547Z,7.50
2023-01-05T03:15:30.286Z,7.47
2023-01-05T03:18:04.860Z,7.49
2023-01-05T03:20:40.676Z,7.50
2023-01-05T03:23:31.678Z,7.55
2023-01-05T03:26:18.953Z,7.46
2023-01-05T03:29:17.054Z,7.57
2023-01-05T03:32:44.737Z,7.57
2023-01-05T03:35:36.430Z,7.51
2023-01-05T03:38:18.481Z,7.62
2023-01-05T03:40:53.905Z,7.61
2023-01-05T03:43:22.887Z,7.48
2023-01-05T03:45:57.821Z,7.71
2023-01-05T03:48:29.633Z,7.48
2023-01-05T03:50:58.003Z,7.70
2023-01-05T03:53:27.776Z,7.51
2023-01-05T03:55:55.831Z,7.73
2023-01-05T03:58:26.169Z,7.54
2023-01-05T04:00:55.326Z,7.70
2023-01-05T04:03:31.058Z,7.67
2023-01-05T04:06:01.411Z,7.10
2023-01-05T04:08:31.143Z,7.42
2023-01-05T04:11:22.040Z,7.64
2023-01-05T04:13:57.829Z,7.39
2023-01-05T04:16:26.036Z,7.64
2023-01-05T04:18:57.277Z,7.64
2023-01-05T04:21:25.604Z,6.89
2023-01-05T04:23:56.069Z,7.58
2023-01-05T04:26:25.052Z,7.61
2023-01-05T04:28:53.573Z,7.34
2023-01-05T04:31:25.714Z,7.52
2023-01-05T04:33:56.887Z,7.53
2023-01-05T04:36:26.253Z,7.50
2023-01-05T04:38:57.397Z,7.55
2023-01-05T04:41:25.687Z,7.50
2023-01-05T04:43:55.430Z,7.42
2023-01-05T04:46:24.430Z,7.40
2023-01-05T04:48:54.571Z,7.27
2023-01-05T04:51:23.456Z,7.28
2023-01-05T04:53:52.242Z,7.20
2023-01-05T04:56:23.919Z,7.22
2023-01-05T04:58:52.085Z,7.30
2023-01-05T05:01:20.860Z,7.31
2023-01-05T05:03:54.284Z,7.19
2023-01-05T05:06:24.548Z,7.30
2023-01-05T05:08:54.627Z,7.29
2023-01-05T05:11:25.040Z,7.30
2023-01-05T05:13:53.120Z,7.29
2023-01-05T05:16:22.038Z,7.38
2023-01-05T05:18:51.427Z,7.37
2023-01-05T05:21:24.621Z,7.38
2023-01-05T05:23:53.829Z,7.38
2023-01-05T05:26:22.016Z,7.50
2023-01-05T05:28:51.688Z,7.51
2023-01-05T05:31:19.612Z,7.52
2023-01-05T05:33:48.078Z,7.13
2023-01-05T05:36:18.135Z,6.87
2023-01-05T05:38:46.127Z,7.58
2023-01-05T05:41:14.249Z,7.57
2023-01-05T05:43:42.852Z,7.56
2023-01-05T05:46:10.862Z,7.61
2023-01-05T05:48:38.955Z,7.61
2023-01-05T05:51:07.214Z,7.61
2023-01-05T05:53:35.152Z,7.33
2023-01-05T05:56:03.227Z,7.59
2023-01-05T05:58:31.935Z,7.60
2023-01-05T06:00:59.958Z,7.63
2023-01-05T06:03:28.425Z,7.59
2023-01-05T06:05:56.590Z,7.55
2023-01-05T06:08:24.850Z,7.53
2023-01-05T06:10:52.727Z,7.55
2023-01-05T06:13:21.323Z,7.59
2023-01-05T06:15:50.156Z,7.47
2023-01-05T06:18:18.200Z,7.65
2023-01-05T06:20:46.509Z,7.62
2023-01-05T06:23:14.534Z,7.65
2023-01-05T06:25:44.425Z,7.70
2023-01-05T06:28:17.038Z,7.65
2023-01-05T06:30:48.548Z,7.42
2023-01-05T06:33:16.666Z,7.58
2023-01-05T06:35:44.612Z,7.57
2023-01-05T06:38:13.773Z,7.57
2023-01-05T06:40:44.817Z,7.62
2023-01-05T06:43:13.362Z,7.69
2023-01-05T06:45:41.539Z,7.67
2023-01-05T06:48:12.275Z,7.89
2023-01-05T06:50:40.896Z,7.92
2023-01-05T06:53:09.055Z,7.82
2023-01-05T06:55:37.240Z,7.71
2023-01-05T06:58:05.574Z,7.96
2023-01-05T07:00:33.709Z,7.97
2023-01-05T07:03:01.936Z,7.99
2023-01-05T07:05:30.086Z,8.05
2023-01-05T07:07:58.340Z,8.03
2023-01-05T07:10:26.427Z,8.05
2023-01-05T07:12:54.726Z,8.00
2023-01-05T07:15:22.930Z,7.67
2023-01-05T07:17:51.324Z,7.98
2023-01-05T07:20:19.529Z,8.00
2023-01-05T07:22:48.015Z,8.01
2023-01-05T07:25:16.514Z,8.06
2023-01-05T07:27:44.503Z,8.07
2023-01-05T07:30:13.114Z,8.07
2023-01-05T07:32:41.262Z,8.11
2023-01-05T07:35:10.026Z,7.96
2023-01-05T07:37:38.443Z,7.86
2023-01-05T07:40:07.822Z,7.92
2023-01-05T07:42:36.036Z,7.94
2023-01-05T07:45:05.763Z,7.98
2023-01-05T07:47:33.960Z,7.93
2023-01-05T07:50:02.111Z,8.00
2023-01-05T07:52:30.842Z,7.96
2023-01-05T07:54:58.985Z,7.90
2023-01-05T07:57:27.179Z,7.74
2023-01-05T07:59:55.524Z,7.72
2023-01-05T08:02:24.038Z,7.96
2023-01-05T08:04:52.153Z,7.78
2023-01-05T08:07:20.395Z,8.02
2023-01-05T08:10:07.528Z,8.02
2023-01-05T08:12:55.967Z,7.76
2023-01-05T08:15:24.470Z,8.00
2023-01-05T08:17:52.819Z,7.81
2023-01-05T08:20:21.222Z,8.04
2023-01-05T08:22:53.796Z,7.77
2023-01-05T08:25:21.905Z,8.05
2023-01-05T08:27:50.087Z,7.86
2023-01-05T08:30:18.526Z,8.12
2023-01-05T08:32:46.564Z,8.18
2023-01-05T08:35:14.786Z,8.18
2023-01-05T08:37:45.953Z,8.40
2023-01-05T08:40:14.145Z,8.42
2023-01-05T08:42:42.214Z,8.38
2023-01-05T08:45:11.297Z,8.39
2023-01-05T08:47:39.372Z,8.23
2023-01-05T08:50:09.828Z,8.53
2023-01-05T08:52:39.467Z,8.51
2023-01-05T08:55:08.755Z,8.15
2023-01-05T08:57:36.979Z,8.27
2023-01-05T09:00:06.656Z,8.07
2023-01-05T09:02:34.963Z,7.80
2023-01-05T09:05:03.371Z,8.07
2023-01-05T09:07:31.875Z,8.08
2023-01-05T09:09:59.955Z,8.11
2023-01-05T09:12:32.914Z,8.25
2023-01-05T09:15:02.018Z,8.21
2023-01-05T09:17:30.217Z,8.12
2023-01-05T09:19:58.455Z,8.05
2023-01-05T09:22:26.724Z,7.75
2023-01-05T09:24:54.998Z,7.97
2023-01-05T09:27:23.086Z,7.79
2023-01-05T09:29:51.423Z,7.97
2023-01-05T09:32:20.455Z,7.97
2023-01-05T09:34:48.498Z,7.59
2023-01-05T09:37:17.084Z,7.71
2023-01-05T09:39:45.077Z,7.94
2023-01-05T09:42:19.601Z,7.77
2023-01-05T09:44:59.267Z,8.02
2023-01-05T09:47:41.445Z,7.83
2023-01-05T09:50:27.218Z,7.45
2023-01-05T09:52:59.582Z,7.95
2023-01-05T09:55:31.854Z,8.14
2023-01-05T09:58:16.819Z,8.07
2023-01-05T10:01:07.124Z,7.94
2023-01-05T10:04:03.446Z,7.76
2023-01-05T10:06:38.293Z,7.60
2023-01-05T10:09:10.449Z,7.41
2023-01-05T10:12:41.201Z,7.88
2023-01-05T10:15:20.832Z,7.93
2023-01-05T10:17:49.760Z,7.98
2023-01-05T10:20:35.658Z,8.04
2023-01-05T10:23:44.543Z,7.97
2023-01-05T10:27:13.913Z,8.24
2023-01-05T10:29:49.072Z,8.21
2023-01-05T10:33:25.256Z,8.30
2023-01-05T10:36:16.510Z,8.26
2023-01-05T10:39:23.804Z,8.23
2023-01-05T10:42:28.510Z,8.22
2023-01-05T10:45:00.054Z,8.36
2023-01-05T10:47:32.400Z,8.43
2023-01-05T10:50:02.387Z,8.51
2023-01-05T10:52:31.888Z,8.55
2023-01-05T10:55:01.806Z,8.16
2023-01-05T10:57:35.762Z,8.49
2023-01-05T11:00:08.434Z,8.55
2023-01-05T11:02:47.832Z,8.60
2023-01-05T11:05:42.676Z,8.64
2023-01-05T11:08:27.826Z,8.64
2023-01-05T11:11:26.434Z,8.66
2023-01-05T11:13:57.847Z,8.43
2023-01-05T11:16:35.383Z,8.68
2023-01-05T11:19:17.270Z,8.47
2023-01-05T11:21:46.385Z,8.81
2023-01-05T11:24:32.197Z,8.86
2023-01-05T11:27:19.483Z,8.82
2023-01-05T11:30:16.582Z,9.06
2023-01-05T11:32:46.215Z,9.29
2023-01-05T11:35:38.003Z,9.37
2023-01-05T11:38:19.385Z,9.38
2023-01-05T11:40:47.630Z,9.59
2023-01-05T11:43:19.991Z,9.78
2023-01-05T11:45:56.230Z,9.64
2023-01-05T11:48:28.946Z,9.60
2023-01-05T11:50:59.153Z,9.65
2023-01-05T11:53:41.348Z,9.49
2023-01-05T11:56:25.281Z,9.44
2023-01-05T11:58:58.055Z,9.40
2023-01-05T12:01:54.720Z,9.36
2023-01-05T12:05:00.320Z,9.32
2023-01-05T12:07:43.292Z,9.29
2023-01-05T12:10:33.897Z,9.12
2023-01-05T12:13:15.894Z,9.00
2023-01-05T12:16:35.296Z,9.22
2023-01-05T12:19:25.213Z,9.20
2023-01-05T12:22:02.122Z,9.22
2023-01-05T12:24:42.595Z,8.98
2023-01-05T12:27:25.736Z,9.25
2023-01-05T12:34:37.295Z,9.33
2023-01-05T12:37:08.267Z,9.47
2023-01-05T12:40:05.576Z,9.47
2023-01-05T12:42:53.228Z,9.38
2023-01-05T12:46:01.372Z,9.33
2023-01-05T12:48:45.879Z,9.14
2023-01-05T12:51:34.540Z,9.38
2023-01-05T12:54:19.056Z,9.35
2023-01-05T12:57:05.623Z,9.30
2023-01-05T12:59:46.720Z,9.30
2023-01-05T13:02:16.194Z,9.23
2023-01-05T13:05:22.917Z,9.08
2023-01-05T13:08:20.733Z,9.23
2023-01-05T13:11:00.278Z,8.88
2023-01-05T13:13:41.769Z,8.87
2023-01-05T13:16:19.777Z,9.10
2023-01-05T13:19:10.399Z,9.16
2023-01-05T13:21:44.708Z,9.37
2023-01-05T13:24:23.203Z,9.40
2023-01-05T13:26:51.550Z,9.35
2023-01-05T13:29:33.360Z,9.29
2023-01-05T13:32:33.014Z,9.18
2023-01-05T13:35:57.531Z,9.07
2023-01-05T13:39:26.500Z,8.91
2023-01-05T13:42:42.323Z,8.84
2023-01-05T13:45:54.799Z,8.76
2023-01-05T13:48:44.189Z,8.74
2023-01-05T13:52:03.468Z,7.99
2023-01-05T13:54:43.501Z,7.83
2023-01-05T13:57:25.507Z,7.60
2023-01-05T14:00:08.321Z,7.25
2023-01-05T14:02:45.451Z,7.37
2023-01-05T14:05:39.731Z,6.90
2023-01-05T14:08:27.532Z,7.02
2023-01-05T14:11:18.841Z,7.02
2023-01-05T14:14:05.231Z,6.86
2023-01-05T14:16:37.855Z,6.85
2023-01-05T14:19:50.400Z,6.72
2023-01-05T14:22:21.922Z,6.67
2023-01-05T14:24:51.269Z,6.59
2023-01-05T14:27:24.789Z,6.67
2023-01-05T14:29:53.184Z,6.39
2023-01-05T14:32:37.639Z,6.02
2023-01-05T14:35:37.235Z,6.67
2023-01-05T14:38:21.499Z,6.67
2023-01-05T14:40:56.030Z,6.69
2023-01-05T14:43:35.317Z,6.65
2023-01-05T14:46:16.006Z,6.29
2023-01-05T14:49:11.413Z,6.37
2023-01-05T14:51:40.006Z,6.75
2023-01-05T14:54:10.692Z,6.80
2023-01-05T14:56:39.116Z,6.84
2023-01-05T14:59:26.285Z,6.87
2023-01-05T15:01:56.255Z,6.84
2023-01-05T15:04:34.163Z,6.73
2023-01-05T15:07:14.204Z,6.85
2023-01-05T15:10:44.368Z,6.92
2023-01-05T15:13:24.355Z,6.89
2023-01-05T15:16:07.160Z,6.86
2023-01-05T15:18:47.404Z,6.84
2023-01-05T15:21:25.409Z,6.72
2023-01-05T15:24:50.640Z,6.63
2023-01-05T15:27:53.247Z,6.57
2023-01-05T15:30:27.183Z,6.48
2023-01-05T15:33:30.479Z,6.44
2023-01-05T15:36:04.616Z,6.37
2023-01-05T15:38:47.925Z,6.26
2023-01-05T15:41:20.480Z,6.32
2023-01-05T15:43:50.432Z,6.15
2023-01-05T15:46:26.240Z,6.28
2023-01-05T15:48:56.005Z,6.19
2023-01-05T15:51:27.837Z,6.06
2023-01-05T15:54:01.625Z,6.22
2023-01-05T15:56:40.953Z,5.91
2023-01-05T15:59:39.269Z,6.18
2023-01-05T16:02:22.475Z,6.13
2023-01-05T16:05:14.798Z,5.92
2023-01-05T16:08:12.053Z,6.11
2023-01-05T16:10:54.000Z,5.59
2023-01-05T16:13:47.949Z,5.96
2023-01-05T16:16:51.369Z,5.90
2023-01-05T16:19:36.936Z,6.09
2023-01-05T16:22:25.215Z,6.18
2023-01-05T16:25:18.006Z,6.18
2023-01-05T16:27:52.023Z,6.20
2023-01-05T16:30:42.298Z,5.94
2023-01-05T16:33:40.522Z,6.23
2023-01-05T16:36:21.034Z,6.20
2023-01-05T16:38:49.864Z,6.15
2023-01-05T16:41:26.956Z,6.18
2023-01-05T16:44:02.972Z,5.91
2023-01-05T16:46:44.042Z,6.01
2023-01-05T16:49:43.461Z,6.08
2023-01-05T16:52:23.915Z,6.13
2023-01-05T16:55:29.054Z,6.09
2023-01-05T16:58:02.501Z,6.08
2023-01-05T17:00:32.845Z,6.06
2023-01-05T17:03:23.370Z,6.05
2023-01-05T17:05:56.800Z,5.77
2023-01-05T17:08:32.299Z,6.08
2023-01-05T17:11:04.879Z,5.79
2023-01-05T17:13:55.125Z,5.84
2023-01-05T17:16:23.850Z,5.92
2023-01-05T17:18:52.382Z,6.16
2023-01-05T17:21:27.669Z,6.13
2023-01-05T17:23:59.468Z,6.16
2023-01-05T17:26:30.265Z,6.20
2023-01-05T17:31:32.237Z,6.19
2023-01-05T17:34:00.774Z,6.17
2023-01-05T17:36:35.542Z,5.96
2023-01-05T17:39:05.216Z,6.17
2023-01-05T17:41:33.902Z,6.20
2023-01-05T17:44:02.116Z,6.08
2023-01-05T17:46:33.846Z,6.07
2023-01-05T17:49:02.553Z,5.82
2023-01-05T17:51:31.251Z,5.87
2023-01-05T17:54:00.501Z,5.83
2023-01-05T17:56:28.714Z,6.10
2023-01-05T17:58:56.876Z,6.05
2023-01-05T18:01:26.459Z,6.04
2023-01-05T18:03:54.717Z,6.02
2023-01-05T18:06:23.137Z,6.03
2023-01-05T18:08:51.821Z,5.93
2023-01-05T18:11:20.307Z,6.02
2023-01-05T18:13:48.867Z,5.96
2023-01-05T18:16:18.185Z,5.76
2023-01-05T18:18:46.356Z,5.73
2023-01-05T18:21:14.859Z,5.99
2023-01-05T18:23:44.295Z,5.98
2023-01-05T18:26:12.671Z,5.97
2023-01-05T18:28:41.075Z,5.97
2023-01-05T18:31:17.029Z,5.73
2023-01-05T18:33:45.402Z,5.92
2023-01-05T18:36:15.419Z,5.95
2023-01-05T18:38:44.221Z,5.89
2023-01-05T18:41:12.945Z,5.75
2023-01-05T18:43:41.352Z,5.79
2023-01-05T18:46:10.252Z,5.92
2023-01-05T18:48:40.355Z,5.82
2023-01-05T18:51:10.577Z,5.96
2023-01-05T18:53:39.550Z,5.90
2023-01-05T18:56:15.258Z,5.83
2023-01-05T18:58:43.786Z,5.56
2023-01-05T19:01:20.323Z,5.49
2023-01-05T19:03:51.166Z,5.54
2023-01-05T19:06:25.884Z,5.62
2023-01-05T19:08:54.321Z,5.54
2023-01-05T19:11:25.287Z,5.45
2023-01-05T19:14:01.449Z,5.37
2023-01-05T19:16:33.607Z,5.28
2023-01-05T19:19:08.844Z,5.19
2023-01-05T19:21:40.615Z,4.85
2023-01-05T19:24:19.896Z,5.07
2023-01-05T19:26:49.678Z,5.02
2023-01-05T19:29:19.393Z,5.01
2023-01-05T19:31:49.597Z,5.01
2023-01-05T19:34:19.714Z,4.99
2023-01-05T19:36:48.268Z,4.94
2023-01-05T19:39:21.727Z,4.88
2023-01-05T19:41:54.221Z,4.63
2023-01-05T19:44:23.436Z,4.72
2023-01-05T19:46:54.788Z,4.70
2023-01-05T19:49:26.591Z,4.28
2023-01-05T19:51:55.227Z,4.65
2023-01-05T19:54:26.323Z,4.67
2023-01-05T19:56:55.425Z,4.64
2023-01-05T19:59:33.205Z,4.64
2023-01-05T20:02:06.251Z,4.64
2023-01-05T20:04:35.967Z,4.66
2023-01-05T20:07:11.301Z,4.64
2023-01-05T20:09:40.413Z,4.64
2023-01-05T20:12:14.762Z,4.59
2023-01-05T20:14:44.510Z,4.65
2023-01-05T20:17:15.895Z,4.67
2023-01-05T20:19:44.891Z,4.63
2023-01-05T20:22:16.705Z,4.63
2023-01-05T20:24:45.150Z,4.69
2023-01-05T20:27:15.703Z,4.68
2023-01-05T20:29:44.277Z,4.41
2023-01-05T20:32:19.223Z,4.71
2023-01-05T20:35:00.182Z,4.72
2023-01-05T20:37:32.517Z,4.74
2023-01-05T20:40:02.945Z,4.67
2023-01-05T20:42:31.837Z,4.41
2023-01-05T20:45:03.564Z,4.45
2023-01-05T20:47:43.132Z,4.68
2023-01-05T20:50:16.981Z,4.70
2023-01-05T20:52:46.005Z,4.26
2023-01-05T20:55:18.827Z,4.60
2023-01-05T20:57:48.928Z,4.56
2023-01-05T21:00:18.658Z,4.39
2023-01-05T21:02:50.088Z,4.48
2023-01-05T21:05:18.975Z,4.55
2023-01-05T21:07:50.521Z,4.32
2023-01-05T21:10:21.104Z,4.54
2023-01-05T21:12:51.152Z,4.41
2023-01-05T21:15:20.144Z,4.17
2023-01-05T21:17:49.192Z,4.40
2023-01-05T21:20:17.692Z,4.38
2023-01-05T21:22:46.345Z,4.44
2023-01-05T21:25:14.765Z,4.43
2023-01-05T21:27:44.182Z,4.36
2023-01-05T21:30:13.693Z,4.36
2023-01-05T21:32:42.577Z,4.19
2023-01-05T21:35:11.207Z,4.27
2023-01-05T21:37:39.571Z,4.20
2023-01-05T21:40:08.969Z,4.16
2023-01-05T21:42:43.090Z,3.84
2023-01-05T21:45:13.363Z,4.05
2023-01-05T21:47:42.027Z,3.98
2023-01-05T21:50:32.464Z,3.98
2023-01-05T21:53:19.956Z,3.67
2023-01-05T21:56:08.243Z,3.88
2023-01-05T21:58:40.525Z,3.82
2023-01-05T22:01:09.473Z,3.81
2023-01-05T22:03:38.321Z,3.45
2023-01-05T22:06:08.660Z,3.79
2023-01-05T22:08:38.330Z,3.74
2023-01-05T22:11:07.160Z,3.74
2023-01-05T22:13:38.578Z,3.72
2023-01-05T22:16:08.975Z,3.75
2023-01-05T22:18:38.003Z,3.73
2023-01-05T22:21:09.950Z,3.74
2023-01-05T22:23:39.599Z,3.68
2023-01-05T22:26:14.731Z,3.40
2023-01-05T22:28:45.190Z,3.61
2023-01-05T22:31:21.233Z,3.61
2023-01-05T22:33:57.982Z,3.54
2023-01-05T22:36:28.779Z,3.55
2023-01-05T22:38:58.514Z,3.23
2023-01-05T22:41:30.714Z,3.47
2023-01-05T22:43:59.751Z,3.33
2023-01-05T22:46:29.755Z,3.10
2023-01-05T22:48:59.396Z,2.94
2023-01-05T22:51:30.277Z,2.94
2023-01-05T22:53:59.686Z,2.82
2023-01-05T22:56:31.255Z,3.08
2023-01-05T22:59:00.527Z,3.07
2023-01-05T23:01:31.174Z,3.12
2023-01-05T23:04:02.229Z,3.06
2023-01-05T23:06:31.424Z,2.90
2023-01-05T23:09:00.350Z,2.90
2023-01-05T23:11:37.086Z,3.00
2023-01-05T23:14:08.798Z,2.88
2023-01-05T23:16:37.872Z,3.21
2023-01-05T23:19:08.778Z,3.19
2023-01-05T23:21:38.505Z,3.24
2023-01-05T23:24:07.298Z,2.87
2023-01-05T23:26:35.958Z,2.92
2023-01-05T23:29:04.450Z,3.08
2023-01-05T23:31:32.691Z,2.84
2023-01-05T23:34:01.509Z,2.88
2023-01-05T23:36:29.892Z,2.88
2023-01-05T23:38:58.462Z,2.83
2023-01-05T23:41:26.578Z,2.84
2023-01-05T23:43:55.594Z,2.85
2023-01-05T23:46:23.920Z,2.82
2023-01-05T23:48:52.820Z,2.86
2023-01-05T23:51:21.479Z,2.83
2023-01-05T23:53:53.899Z,2.55
2023-01-05T23:56:29.267Z,2.78
2023-01-05T23:59:04.285Z,2.48
